Time;durP1;ratioP1;P1;durP2;ratioP2;P2;SDS_P1;SDS_P2;PMS_P1;PMS_P2;Temp;Humidity;BMP_temperature;BMP_pressure;BME280_temperature;BME280_humidity;BME280_pressure;Samples;Min_cycle;Max_cycle;Signal;HPM_P1;HPM_P2
2021/12/08 00:00:09;;;;;;;8.23;5.37;;;15.20;77.20;;;;;;2013630;28;20173;-84
2021/12/08 00:01:11;;;;;;;9.02;6.10;;;15.20;77.10;;;;;;2014129;28;20244;-85
2021/12/08 00:02:11;;;;;;;10.48;6.00;;;15.10;77.00;;;;;;2005542;28;20185;-85
2021/12/08 00:03:12;;;;;;;9.63;5.97;;;15.10;77.30;;;;;;2005566;28;20201;-86
2021/12/08 00:04:11;;;;;;;14.63;6.70;;;15.20;77.10;;;;;;2013859;28;20183;-84
2021/12/08 00:05:12;;;;;;;11.10;5.87;;;15.10;77.00;;;;;;2014174;28;20179;-86
2021/12/08 00:06:11;;;;;;;9.32;5.47;;;15.10;76.90;;;;;;2013878;28;20201;-84
2021/12/08 00:07:10;;;;;;;9.40;5.88;;;15.20;77.00;;;;;;2005176;28;20185;-83
2021/12/08 00:08:09;;;;;;;7.73;5.13;;;15.20;77.30;;;;;;2005661;28;20200;-84
2021/12/08 00:09:29;;;;;;;10.43;6.00;;;15.10;77.00;;;;;;2013507;28;20172;-86
2021/12/08 00:13:07;;;;;;;11.23;5.75;;;15.00;76.80;;;;;;2013991;28;20160;-83
2021/12/08 00:14:05;;;;;;;12.73;6.57;;;15.00;77.20;;;;;;2005190;28;20218;-84
2021/12/08 00:15:05;;;;;;;10.17;5.70;;;15.10;77.00;;;;;;1997586;28;20181;-84
2021/12/08 00:16:10;;;;;;;10.15;6.10;;;15.00;76.80;;;;;;2004860;28;20169;-83
2021/12/08 00:17:08;;;;;;;8.90;5.47;;;15.00;76.90;;;;;;2013914;28;20180;-83
2021/12/08 00:18:22;;;;;;;9.07;5.97;;;15.00;77.20;;;;;;2013665;28;20185;-84
2021/12/08 00:19:21;;;;;;;8.70;5.13;;;15.00;76.90;;;;;;2005268;28;20200;-84
2021/12/08 00:20:20;;;;;;;11.07;5.83;;;15.00;77.50;;;;;;2005322;28;20169;-84
2021/12/08 00:21:19;;;;;;;9.40;5.10;;;15.00;77.50;;;;;;2013196;28;20216;-82
2021/12/08 00:22:18;;;;;;;10.32;6.43;;;15.00;77.70;;;;;;2005146;28;20181;-84
2021/12/08 00:23:16;;;;;;;8.43;6.10;;;15.00;77.20;;;;;;1997410;28;20652;-84
2021/12/08 00:24:15;;;;;;;11.57;5.80;;;15.10;77.50;;;;;;2004818;28;20189;-84
2021/12/08 00:25:14;;;;;;;7.80;5.00;;;15.10;77.30;;;;;;2012870;28;20726;-83
2021/12/08 00:26:12;;;;;;;9.10;5.40;;;15.10;77.40;;;;;;2013533;28;20243;-84
2021/12/08 00:27:12;;;;;;;10.87;5.80;;;15.00;77.20;;;;;;2013689;28;20421;-84
2021/12/08 00:28:12;;;;;;;11.05;6.95;;;15.00;77.50;;;;;;2013740;28;20631;-82
2021/12/08 00:29:10;;;;;;;11.38;6.38;;;15.00;77.40;;;;;;2013549;28;20199;-85
2021/12/08 00:30:09;;;;;;;9.00;5.73;;;15.00;77.50;;;;;;2013667;28;20226;-85
2021/12/08 00:31:08;;;;;;;8.67;5.20;;;15.00;77.60;;;;;;2013917;28;20226;-85
2021/12/08 00:32:09;;;;;;;11.77;5.80;;;15.10;78.40;;;;;;2005268;28;20659;-86
2021/12/08 00:33:09;;;;;;;10.50;6.55;;;15.00;78.00;;;;;;2005240;28;20444;-85
2021/12/08 00:34:07;;;;;;;11.18;5.97;;;15.10;78.10;;;;;;2013805;28;20307;-84
2021/12/08 00:35:07;;;;;;;12.57;6.83;;;15.10;78.40;;;;;;2013676;28;20226;-86
2021/12/08 00:36:12;;;;;;;9.80;6.32;;;15.10;78.50;;;;;;2013636;28;20569;-85
2021/12/08 00:37:11;;;;;;;11.25;6.47;;;15.10;78.50;;;;;;2013691;28;20635;-85
2021/12/08 00:38:10;;;;;;;11.15;6.07;;;15.10;78.10;;;;;;2013458;28;20291;-86
2021/12/08 00:39:10;;;;;;;10.03;5.73;;;15.00;78.50;;;;;;2013454;28;20285;-86
2021/12/08 00:40:11;;;;;;;10.88;6.50;;;15.10;79.20;;;;;;2013536;28;20399;-85
2021/12/08 00:41:11;;;;;;;9.63;5.78;;;15.10;79.50;;;;;;2013550;28;20180;-84
2021/12/08 00:42:10;;;;;;;11.75;5.32;;;15.00;79.50;;;;;;2013552;28;20626;-86
2021/12/08 00:43:09;;;;;;;11.03;6.50;;;15.10;80.40;;;;;;2013685;28;20180;-85
2021/12/08 00:44:09;;;;;;;10.40;6.50;;;15.10;81.10;;;;;;2013762;28;20418;-85
2021/12/08 00:45:12;;;;;;;8.93;6.07;;;15.10;82.70;;;;;;2013323;28;20223;-86
2021/12/08 00:46:10;;;;;;;12.60;6.35;;;15.10;81.80;;;;;;2013510;28;20562;-85
2021/12/08 00:47:09;;;;;;;14.47;6.10;;;14.80;82.90;;;;;;2005068;28;20174;-85
2021/12/08 00:48:08;;;;;;;9.00;5.73;;;15.00;82.70;;;;;;2005089;28;20169;-85
2021/12/08 00:49:08;;;;;;;9.60;5.63;;;15.00;82.30;;;;;;2013103;28;20645;-85
2021/12/08 00:50:10;;;;;;;8.13;5.80;;;15.10;82.50;;;;;;2004837;28;20174;-85
2021/12/08 00:51:09;;;;;;;9.23;5.47;;;15.10;83.30;;;;;;2004949;28;20173;-85
2021/12/08 00:52:08;;;;;;;11.20;5.77;;;15.10;82.90;;;;;;2013534;28;20211;-83
2021/12/08 00:53:07;;;;;;;9.90;5.95;;;15.10;84.30;;;;;;2013583;28;20176;-84
2021/12/08 00:54:05;;;;;;;10.93;6.53;;;15.10;86.90;;;;;;2013409;28;20476;-86
2021/12/08 00:55:06;;;;;;;11.17;6.10;;;15.00;86.50;;;;;;2013685;28;20191;-85
2021/12/08 00:56:05;;;;;;;8.70;5.97;;;15.10;86.80;;;;;;2013797;28;20659;-84
2021/12/08 00:57:04;;;;;;;9.90;6.03;;;15.00;86.60;;;;;;2015013;28;20253;-85
2021/12/08 00:58:03;;;;;;;8.93;5.93;;;15.00;85.50;;;;;;2008283;28;20225;-84
2021/12/08 00:59:03;;;;;;;11.13;6.45;;;15.00;84.80;;;;;;2008379;28;20225;-86
2021/12/08 01:00:06;;;;;;;10.13;5.30;;;15.00;84.00;;;;;;2016873;28;20192;-86
2021/12/08 01:01:07;;;;;;;8.57;5.20;;;15.00;83.80;;;;;;2016318;28;20218;-84
2021/12/08 01:02:06;;;;;;;12.05;5.47;;;15.00;82.20;;;;;;2007138;28;20550;-86
2021/12/08 01:03:05;;;;;;;8.73;5.70;;;15.00;84.50;;;;;;2006515;28;20183;-86
2021/12/08 01:04:05;;;;;;;8.38;5.30;;;15.00;79.90;;;;;;2013142;28;20548;-85
2021/12/08 01:05:09;;;;;;;9.60;6.00;;;15.10;80.00;;;;;;2013402;28;20234;-86
2021/12/08 01:06:07;;;;;;;10.60;6.30;;;15.00;82.90;;;;;;2004533;28;20204;-86
2021/12/08 01:07:06;;;;;;;10.47;5.50;;;15.00;85.10;;;;;;2004825;28;20176;-85
2021/12/08 01:08:07;;;;;;;8.18;5.72;;;15.00;88.70;;;;;;2012827;28;20180;-86
2021/12/08 01:09:05;;;;;;;10.88;5.93;;;15.10;90.00;;;;;;2013305;28;20231;-84
2021/12/08 01:10:07;;;;;;;9.77;5.30;;;15.00;83.80;;;;;;2013227;28;20242;-85
2021/12/08 01:11:13;;;;;;;16.80;5.70;;;15.00;90.40;;;;;;2013233;28;20173;-85
2021/12/08 01:12:11;;;;;;;10.70;6.43;;;15.10;81.50;;;;;;2013497;28;20243;-86
2021/12/08 01:13:12;;;;;;;9.73;5.53;;;15.00;81.40;;;;;;2013439;28;20222;-85
2021/12/08 01:14:10;;;;;;;9.30;5.95;;;15.00;83.20;;;;;;2013476;28;20344;-86
2021/12/08 01:15:09;;;;;;;9.73;5.97;;;15.00;83.60;;;;;;2013459;28;20631;-85
2021/12/08 01:16:08;;;;;;;9.00;5.85;;;15.00;82.20;;;;;;2013361;28;20175;-85
2021/12/08 01:17:09;;;;;;;10.37;6.53;;;15.00;84.60;;;;;;2005014;28;20185;-85
2021/12/08 01:18:08;;;;;;;11.77;6.00;;;15.00;87.30;;;;;;1996840;28;20197;-85
2021/12/08 01:19:07;;;;;;;10.43;5.88;;;15.00;85.00;;;;;;2004761;28;20596;-86
2021/12/08 01:20:09;;;;;;;9.33;6.00;;;15.00;83.40;;;;;;2013014;28;20231;-85
2021/12/08 01:21:09;;;;;;;8.85;5.32;;;15.00;83.40;;;;;;2004647;28;20216;-84
2021/12/08 01:22:08;;;;;;;9.40;5.60;;;15.00;82.40;;;;;;2004784;28;20185;-85
2021/12/08 01:23:07;;;;;;;11.83;6.03;;;15.00;84.40;;;;;;2012988;28;20204;-86
2021/12/08 01:24:05;;;;;;;11.10;6.37;;;14.90;87.40;;;;;;2013469;28;20403;-85
2021/12/08 01:25:05;;;;;;;11.43;5.80;;;15.00;85.00;;;;;;2004669;28;20461;-85
2021/12/08 01:26:07;;;;;;;10.90;6.55;;;14.90;90.70;;;;;;2004793;28;20173;-85
2021/12/08 01:27:05;;;;;;;9.95;6.22;;;14.90;88.00;;;;;;2004736;28;20229;-86
2021/12/08 01:28:04;;;;;;;13.13;6.10;;;15.00;90.00;;;;;;2005032;28;20176;-86
2021/12/08 01:29:03;;;;;;;13.97;7.37;;;15.00;85.70;;;;;;2013027;28;20495;-85
2021/12/08 01:30:05;;;;;;;11.63;6.10;;;14.90;77.30;;;;;;2013002;28;20403;-86
2021/12/08 01:31:04;;;;;;;12.20;6.13;;;14.90;79.40;;;;;;2004632;28;20432;-85
2021/12/08 01:32:06;;;;;;;10.57;6.43;;;14.90;81.80;;;;;;1996941;28;20234;-85
2021/12/08 01:33:05;;;;;;;10.32;6.70;;;14.90;80.90;;;;;;2004562;28;20260;-86
2021/12/08 01:34:04;;;;;;;8.27;5.70;;;;;;;;;;1996900;28;20174;-85
2021/12/08 01:35:05;;;;;;;14.40;6.30;;;14.80;74.40;;;;;;2004281;28;20173;-85
2021/12/08 01:36:05;;;;;;;8.07;5.78;;;14.80;75.90;;;;;;2004653;28;20404;-86
2021/12/08 01:37:04;;;;;;;8.88;6.05;;;14.70;77.40;;;;;;2004729;28;20212;-85
2021/12/08 01:38:03;;;;;;;10.10;6.67;;;14.70;79.40;;;;;;2004413;28;20756;-85
2021/12/08 01:39:04;;;;;;;9.90;6.25;;;14.80;78.90;;;;;;2004613;28;20173;-85
2021/12/08 01:40:05;;;;;;;8.65;5.32;;;14.80;79.20;;;;;;2013048;28;20173;-85
2021/12/08 01:41:06;;;;;;;10.32;6.15;;;;;;;;;;2013210;28;20164;-85
2021/12/08 01:42:06;;;;;;;10.80;6.80;;;14.80;81.30;;;;;;2013028;28;20172;-85
2021/12/08 01:43:12;;;;;;;10.15;6.20;;;14.80;82.60;;;;;;2012909;28;20252;-85
2021/12/08 01:46:46;;;;;;;9.70;5.82;;;14.90;78.70;;;;;;2009671;28;20196;-85
2021/12/08 01:47:44;;;;;;;10.60;5.97;;;14.90;78.70;;;;;;2013207;28;20172;-84
2021/12/08 01:48:45;;;;;;;10.13;5.73;;;14.90;81.20;;;;;;2004819;28;20224;-85
2021/12/08 01:49:44;;;;;;;10.93;5.70;;;;;;;;;;2004812;28;20169;-85
2021/12/08 01:50:47;;;;;;;11.17;6.40;;;14.90;84.10;;;;;;2004902;28;20176;-86
2021/12/08 01:51:46;;;;;;;9.05;5.80;;;14.90;79.40;;;;;;2013498;28;20402;-85
2021/12/08 01:52:44;;;;;;;14.07;6.07;;;14.90;83.20;;;;;;2013940;28;20196;-84
2021/12/08 01:53:48;;;;;;;10.17;5.93;;;14.90;84.10;;;;;;2014471;28;20498;-86
2021/12/08 01:54:48;;;;;;;10.57;5.65;;;14.90;71.60;;;;;;2015867;28;20251;-85
2021/12/08 01:55:47;;;;;;;8.25;5.28;;;14.90;72.50;;;;;;2008053;28;20181;-84
2021/12/08 01:56:45;;;;;;;9.80;6.43;;;14.90;72.20;;;;;;2007980;28;20222;-85
2021/12/08 01:57:45;;;;;;;11.33;6.00;;;14.90;72.40;;;;;;2015919;28;20476;-84
2021/12/08 01:58:44;;;;;;;9.35;5.60;;;14.90;72.00;;;;;;2016367;28;20630;-85
2021/12/08 01:59:42;;;;;;;11.85;5.90;;;14.90;72.20;;;;;;2013870;28;20172;-85
2021/12/08 02:01:05;;;;;;;8.60;5.23;;;14.90;72.00;;;;;;2013054;28;20250;-85
2021/12/08 02:02:04;;;;;;;7.75;5.20;;;14.90;71.40;;;;;;2013105;28;20171;-83
2021/12/08 02:03:03;;;;;;;7.80;5.30;;;14.90;71.70;;;;;;2012896;28;20549;-82
2021/12/08 02:04:04;;;;;;;12.60;6.40;;;14.90;71.70;;;;;;2013065;28;20164;-86
2021/12/08 02:05:03;;;;;;;11.07;6.00;;;14.90;71.80;;;;;;2004572;28;20591;-84
2021/12/08 02:06:05;;;;;;;13.55;6.80;;;14.90;71.20;;;;;;2004285;28;20173;-83
2021/12/08 02:07:04;;;;;;;12.00;6.63;;;14.90;71.40;;;;;;2012917;28;20168;-83
2021/12/08 02:08:04;;;;;;;13.50;6.40;;;15.00;71.80;;;;;;2012750;28;20173;-83
2021/12/08 02:09:09;;;;;;;10.55;5.35;;;15.00;71.90;;;;;;2013127;28;20230;-82
2021/12/08 02:10:09;;;;;;;13.55;6.30;;;15.00;71.00;;;;;;2013279;28;20627;-84
2021/12/08 02:11:08;;;;;;;10.32;6.80;;;15.00;71.10;;;;;;2004415;28;20211;-83
2021/12/08 02:12:09;;;;;;;10.35;5.47;;;15.00;71.10;;;;;;2004638;28;20652;-84
2021/12/08 02:13:09;;;;;;;9.68;5.43;;;15.00;71.40;;;;;;2012717;28;20238;-82
2021/12/08 02:14:08;;;;;;;7.60;5.13;;;15.00;71.50;;;;;;2012989;28;20480;-82
2021/12/08 02:17:02;;;;;;;10.73;6.85;;;15.00;71.10;;;;;;2013125;28;20157;-82
2021/12/08 02:18:02;;;;;;;9.30;5.40;;;15.00;71.00;;;;;;2012796;28;20173;-83
2021/12/08 02:19:01;;;;;;;11.90;6.03;;;15.00;71.30;;;;;;2012973;28;20169;-84
2021/12/08 02:20:01;;;;;;;10.07;5.57;;;15.00;71.40;;;;;;2013041;28;20196;-83
2021/12/08 02:21:02;;;;;;;8.43;5.75;;;15.00;71.40;;;;;;2004494;28;20173;-84
2021/12/08 02:22:01;;;;;;;7.57;4.53;;;15.20;71.70;;;;;;2004610;28;20182;-84
2021/12/08 02:23:00;;;;;;;9.37;5.90;;;15.00;70.80;;;;;;2012764;28;20200;-86
2021/12/08 02:24:11;;;;;;;10.73;6.73;;;15.00;71.90;;;;;;2013160;28;20165;-83
2021/12/08 02:25:14;;;;;;;9.18;5.70;;;15.00;71.80;;;;;;2012878;28;20198;-85
2021/12/08 02:26:13;;;;;;;11.02;6.07;;;15.10;71.70;;;;;;2004265;28;20684;-82
2021/12/08 02:27:11;;;;;;;7.90;5.20;;;15.00;71.60;;;;;;2004446;28;20231;-84
2021/12/08 02:28:12;;;;;;;9.03;5.47;;;15.10;72.00;;;;;;2012165;28;20180;-84
2021/12/08 02:29:16;;;;;;;10.05;5.38;;;15.10;71.90;;;;;;2012894;28;20538;-83
2021/12/08 02:30:36;;;;;;;10.30;5.95;;;15.20;71.90;;;;;;2012845;28;20178;-85
2021/12/08 02:32:00;;;;;;;9.93;5.35;;;15.10;71.80;;;;;;2012782;28;20148;-84
2021/12/08 02:47:17;;;;;;;8.82;5.00;;;15.00;72.80;;;;;;2012985;28;20153;-85
2021/12/08 02:48:15;;;;;;;9.80;5.53;;;15.00;72.90;;;;;;2004538;28;20574;-84
2021/12/08 02:49:15;;;;;;;8.53;5.00;;;15.00;72.90;;;;;;2004589;28;20181;-85
2021/12/08 02:50:14;;;;;;;10.45;5.93;;;15.00;72.90;;;;;;2004179;28;20173;-85
2021/12/08 02:51:13;;;;;;;9.10;4.80;;;15.00;73.80;;;;;;2004418;28;20169;-84
2021/12/08 02:52:13;;;;;;;12.53;5.70;;;15.20;72.80;;;;;;2012392;28;20164;-85
2021/12/08 02:53:14;;;;;;;8.15;5.68;;;15.20;73.20;;;;;;2012623;28;20545;-85
2021/12/08 02:54:12;;;;;;;11.25;5.95;;;15.00;72.90;;;;;;2012564;28;20541;-85
2021/12/08 02:55:11;;;;;;;9.07;5.23;;;15.10;73.00;;;;;;2012697;28;20207;-84
2021/12/08 02:56:10;;;;;;;6.80;4.50;;;15.00;73.60;;;;;;2012557;28;20183;-83
2021/12/08 02:57:10;;;;;;;7.80;5.13;;;15.00;73.10;;;;;;2012958;28;20203;-85
2021/12/08 02:58:11;;;;;;;11.02;5.70;;;15.00;73.20;;;;;;2013038;28;20176;-83
2021/12/08 02:59:10;;;;;;;11.15;5.55;;;15.00;73.30;;;;;;2012595;28;20181;-84
2021/12/08 03:00:13;;;;;;;8.15;4.78;;;15.10;73.60;;;;;;2012743;28;20523;-85
2021/12/08 03:01:12;;;;;;;7.07;4.90;;;15.00;73.90;;;;;;2012766;28;20172;-85
2021/12/08 03:02:12;;;;;;;8.50;4.88;;;15.00;74.60;;;;;;2012694;28;20172;-85
2021/12/08 03:03:11;;;;;;;8.20;5.85;;;15.00;74.70;;;;;;2012852;28;20588;-85
2021/12/08 03:04:10;;;;;;;11.03;5.20;;;15.00;75.50;;;;;;2012951;28;20260;-84
2021/12/08 03:05:10;;;;;;;7.93;5.33;;;15.00;78.60;;;;;;2004195;28;20187;-84
2021/12/08 03:06:10;;;;;;;9.88;5.57;;;15.00;79.30;;;;;;2003838;28;20431;-84
2021/12/08 03:07:09;;;;;;;10.73;5.55;;;15.00;78.90;;;;;;2004195;28;20173;-84
2021/12/08 03:08:08;;;;;;;8.53;5.17;;;15.00;77.30;;;;;;2004252;28;20260;-85
2021/12/08 03:09:08;;;;;;;7.35;5.25;;;15.10;82.00;;;;;;2012889;28;20407;-85
2021/12/08 03:10:10;;;;;;;9.93;5.47;;;15.00;76.60;;;;;;2012766;28;20189;-83
2021/12/08 03:11:09;;;;;;;7.32;5.50;;;15.00;76.30;;;;;;2012995;28;20169;-84
2021/12/08 03:12:08;;;;;;;8.45;4.95;;;15.00;82.80;;;;;;2004204;28;20178;-83
2021/12/08 03:13:08;;;;;;;9.20;5.70;;;15.00;82.00;;;;;;2004180;28;20173;-84
2021/12/08 03:14:12;;;;;;;8.95;4.82;;;15.00;81.40;;;;;;2012653;28;20410;-85
2021/12/08 03:15:13;;;;;;;9.85;5.22;;;15.00;79.20;;;;;;2014347;28;20168;-83
2021/12/08 03:16:13;;;;;;;8.15;5.47;;;15.00;79.20;;;;;;2014165;28;20187;-84
2021/12/08 03:17:14;;;;;;;7.85;5.00;;;15.10;78.80;;;;;;2014385;28;20177;-83
2021/12/08 03:18:13;;;;;;;6.95;4.65;;;14.90;71.90;;;;;;2014222;28;20302;-85
2021/12/08 03:19:12;;;;;;;7.93;5.27;;;15.20;73.00;;;;;;2014173;28;20180;-83
2021/12/08 03:20:15;;;;;;;9.23;5.70;;;15.00;72.70;;;;;;2014296;28;20228;-85
2021/12/08 03:21:13;;;;;;;7.07;4.68;;;15.00;72.80;;;;;;2005649;28;20271;-84
2021/12/08 03:22:12;;;;;;;12.40;5.87;;;15.00;73.10;;;;;;2005790;28;20224;-84
2021/12/08 03:23:17;;;;;;;11.17;6.47;;;15.00;72.80;;;;;;2013829;28;20251;-84
2021/12/08 03:25:20;;;;;;;6.50;4.77;;;14.90;73.20;;;;;;2005904;28;20177;-84
2021/12/08 03:26:26;;;;;;;10.48;5.43;;;15.20;73.80;;;;;;2005606;28;20224;-84
2021/12/08 03:27:26;;;;;;;11.07;5.65;;;15.00;73.50;;;;;;2005688;28;20170;-85
2021/12/08 03:28:30;;;;;;;6.20;4.75;;;15.00;73.30;;;;;;1997795;28;20201;-84
2021/12/08 03:29:40;;;;;;;7.90;5.30;;;14.90;73.40;;;;;;2005949;28;20205;-83
2021/12/08 03:30:52;;;;;;;8.43;4.80;;;15.00;73.80;;;;;;2006888;28;20150;-84
2021/12/08 03:31:53;;;;;;;10.07;5.72;;;15.00;73.60;;;;;;2005633;28;20621;-84
2021/12/08 03:32:56;;;;;;;9.60;5.05;;;15.00;73.70;;;;;;2005851;28;20216;-83
2021/12/08 03:33:55;;;;;;;5.63;4.50;;;15.00;74.00;;;;;;2014170;28;20563;-84
2021/12/08 03:34:53;;;;;;;5.43;4.50;;;15.00;73.70;;;;;;2013947;28;20224;-84
2021/12/08 03:35:52;;;;;;;8.70;5.40;;;15.00;73.90;;;;;;2014159;28;20176;-84
2021/12/08 03:36:51;;;;;;;8.60;4.90;;;15.00;74.10;;;;;;2014361;28;20197;-82
2021/12/08 03:37:51;;;;;;;11.98;5.38;;;15.10;73.80;;;;;;2013977;28;20256;-84
2021/12/08 03:38:49;;;;;;;14.68;5.60;;;14.90;74.00;;;;;;2014120;28;20510;-83
2021/12/08 03:39:50;;;;;;;7.10;5.17;;;15.00;74.20;;;;;;2014105;28;20217;-83
2021/12/08 03:40:50;;;;;;;8.40;4.85;;;15.00;74.30;;;;;;2014085;28;20207;-83
2021/12/08 03:41:49;;;;;;;7.25;5.15;;;15.00;74.50;;;;;;2014121;28;20173;-84
2021/12/08 03:42:51;;;;;;;8.57;4.80;;;15.00;74.80;;;;;;2014005;28;20635;-84
2021/12/08 03:43:51;;;;;;;9.15;5.38;;;14.90;75.70;;;;;;2013977;28;20234;-83
2021/12/08 03:44:51;;;;;;;10.20;5.00;;;;;;;;;;2005479;28;20173;-85
2021/12/08 03:45:53;;;;;;;9.20;5.13;;;14.90;70.20;;;;;;2005422;28;20216;-84
2021/12/08 03:46:59;;;;;;;8.05;5.22;;;14.90;73.10;;;;;;2013923;28;20184;-83
2021/12/08 03:48:03;;;;;;;9.18;4.93;;;15.00;77.00;;;;;;2014232;28;20291;-85
2021/12/08 03:49:05;;;;;;;7.93;4.90;;;14.90;83.00;;;;;;2014229;28;20161;-85
2021/12/08 03:50:08;;;;;;;9.18;5.15;;;15.00;70.40;;;;;;2014194;28;20255;-85
2021/12/08 03:51:06;;;;;;;7.57;5.30;;;15.00;71.10;;;;;;2013978;28;20294;-84
2021/12/08 03:52:05;;;;;;;9.50;4.90;;;14.90;71.80;;;;;;2014162;28;20294;-84
2021/12/08 03:53:05;;;;;;;11.03;5.80;;;15.00;67.10;;;;;;2014100;28;20875;-82
2021/12/08 03:54:04;;;;;;;8.50;5.45;;;14.70;66.50;;;;;;2005487;28;20173;-83
2021/12/08 03:55:06;;;;;;;6.25;4.22;;;15.00;66.60;;;;;;2005318;28;20265;-84
2021/12/08 03:56:05;;;;;;;8.52;5.32;;;15.00;66.80;;;;;;2014079;28;20165;-83
2021/12/08 03:57:04;;;;;;;10.27;5.23;;;15.00;66.40;;;;;;2014072;28;20180;-85
2021/12/08 03:58:03;;;;;;;7.93;4.80;;;15.00;66.80;;;;;;2013959;28;20954;-84
2021/12/08 03:59:04;;;;;;;10.17;5.40;;;15.00;66.10;;;;;;2013923;28;20172;-84
2021/12/08 04:00:06;;;;;;;8.45;5.03;;;15.10;66.30;;;;;;2013863;28;20172;-84
2021/12/08 04:01:06;;;;;;;5.70;4.38;;;15.10;66.00;;;;;;2013762;28;20173;-84
2021/12/08 04:02:05;;;;;;;5.97;4.50;;;15.10;66.00;;;;;;2005495;28;20183;-83
2021/12/08 04:03:06;;;;;;;6.60;4.50;;;15.00;66.70;;;;;;2005532;28;20177;-82
2021/12/08 04:04:07;;;;;;;8.95;5.30;;;15.00;66.20;;;;;;2013859;28;20165;-83
2021/12/08 04:05:07;;;;;;;9.82;5.72;;;15.20;66.20;;;;;;2014109;28;20253;-84
2021/12/08 04:06:25;;;;;;;9.23;4.78;;;15.00;65.90;;;;;;2013831;28;20176;-85
2021/12/08 04:07:25;;;;;;;7.60;4.65;;;15.00;65.90;;;;;;2005502;28;20614;-84
2021/12/08 04:08:33;;;;;;;9.95;5.40;;;15.00;65.90;;;;;;2008003;28;20162;-85
2021/12/08 04:09:39;;;;;;;6.93;4.82;;;14.90;65.60;;;;;;2005365;28;20177;-84
2021/12/08 04:10:38;;;;;;;10.07;4.82;;;14.90;65.70;;;;;;2005421;28;20181;-83
2021/12/08 04:11:37;;;;;;;7.38;4.82;;;14.90;66.10;;;;;;2005484;28;20677;-86
2021/12/08 04:12:36;;;;;;;8.47;4.93;;;14.90;66.30;;;;;;2013678;28;20227;-84
2021/12/08 04:13:48;;;;;;;8.00;5.07;;;14.90;66.10;;;;;;2013878;28;20230;-85
2021/12/08 04:14:54;;;;;;;8.30;5.03;;;14.90;66.20;;;;;;2005507;28;20184;-86
2021/12/08 04:15:54;;;;;;;9.55;4.95;;;14.90;66.10;;;;;;2005944;28;20173;-82
2021/12/08 04:17:14;;;;;;;8.30;4.85;;;14.90;66.40;;;;;;2013723;28;20505;-84
2021/12/08 04:18:13;;;;;;;10.23;5.20;;;14.90;66.50;;;;;;2005578;28;20213;-84
2021/12/08 04:19:13;;;;;;;9.63;5.55;;;14.80;66.50;;;;;;2005223;28;20174;-85
2021/12/08 04:20:31;;;;;;;7.13;4.60;;;14.80;66.90;;;;;;2013375;28;20642;-84
2021/12/08 04:21:31;;;;;;;7.45;4.80;;;14.90;67.10;;;;;;2013888;28;20238;-83
2021/12/08 04:22:35;;;;;;;7.82;5.45;;;14.90;67.10;;;;;;2013772;28;20180;-83
2021/12/08 04:23:36;;;;;;;7.45;4.95;;;14.90;67.10;;;;;;2005309;28;20166;-85
2021/12/08 04:24:36;;;;;;;5.82;4.13;;;14.80;67.30;;;;;;1997227;28;20261;-83
2021/12/08 04:25:40;;;;;;;7.85;5.20;;;15.00;67.70;;;;;;2004557;28;20181;-83
2021/12/08 04:26:50;;;;;;;15.38;5.13;;;14.90;68.00;;;;;;2013575;28;20204;-85
2021/12/08 04:27:54;;;;;;;7.32;4.38;;;14.90;68.20;;;;;;2013927;28;20247;-85
2021/12/08 04:28:53;;;;;;;8.38;4.43;;;14.90;68.10;;;;;;2013861;28;20512;-85
2021/12/08 04:29:52;;;;;;;8.50;4.25;;;14.80;68.20;;;;;;2013598;28;20180;-84
2021/12/08 04:30:56;;;;;;;7.77;4.73;;;14.80;68.70;;;;;;2013969;28;20600;-84
2021/12/08 04:31:56;;;;;;;8.20;4.38;;;14.90;69.10;;;;;;2013927;28;20161;-85
2021/12/08 04:32:55;;;;;;;8.80;5.43;;;14.80;68.70;;;;;;2014039;28;20264;-85
2021/12/08 04:34:00;;;;;;;8.30;5.07;;;14.90;69.60;;;;;;2005273;28;20174;-85
2021/12/08 04:35:00;;;;;;;8.43;4.40;;;14.90;69.60;;;;;;1997736;28;20429;-83
2021/12/08 04:35:59;;;;;;;6.15;4.05;;;14.90;70.60;;;;;;1997284;28;20586;-84
2021/12/08 04:37:02;;;;;;;7.20;5.13;;;14.80;71.50;;;;;;2005098;28;20538;-83
2021/12/08 04:38:07;;;;;;;7.35;4.63;;;14.90;70.40;;;;;;2013767;28;20227;-85
2021/12/08 04:39:13;;;;;;;7.68;4.32;;;14.90;70.30;;;;;;2013331;28;20172;-84
2021/12/08 04:40:36;;;;;;;6.95;4.03;;;14.90;68.70;;;;;;2005394;28;20179;-85
2021/12/08 04:41:40;;;;;;;5.72;4.70;;;14.80;68.70;;;;;;2004982;28;20173;-84
2021/12/08 04:43:56;;;;;;;9.48;4.85;;;14.90;69.60;;;;;;2005422;28;20265;-85
2021/12/08 04:45:03;;;;;;;6.85;4.60;;;14.90;69.90;;;;;;2005068;28;20246;-85
2021/12/08 04:47:46;;;;;;;7.40;5.32;;;15.20;71.80;;;;;;2008824;28;20624;-85
2021/12/08 04:49:16;;;;;;;7.57;4.47;;;;;;;;;;2013626;28;20167;-86
2021/12/08 04:51:39;;;;;;;9.05;4.68;;;14.90;69.80;;;;;;2013699;28;20161;-85
2021/12/08 04:52:55;;;;;;;10.68;4.70;;;14.90;67.50;;;;;;2005119;28;20173;-86
2021/12/08 05:00:16;;;;;;;6.00;4.88;;;14.90;67.00;;;;;;2004938;28;20173;-85
2021/12/08 05:04:27;;;;;;;7.53;4.05;;;15.00;66.30;;;;;;2013376;28;20631;-85
2021/12/08 05:08:14;;;;;;;7.43;4.32;;;15.00;66.30;;;;;;1997238;28;20233;-86
2021/12/08 05:09:18;;;;;;;6.57;4.20;;;15.00;66.50;;;;;;2004802;28;20685;-86
2021/12/08 05:10:27;;;;;;;8.23;5.05;;;15.00;66.80;;;;;;2005081;28;20625;-85
2021/12/08 05:11:31;;;;;;;8.40;4.55;;;15.00;66.80;;;;;;2013277;28;20160;-85
2021/12/08 05:12:33;;;;;;;8.18;4.70;;;15.00;66.10;;;;;;2013452;28;20157;-85
2021/12/08 05:13:32;;;;;;;5.50;3.90;;;15.00;66.50;;;;;;2013331;28;20167;-85
2021/12/08 05:14:40;;;;;;;7.17;4.00;;;15.00;66.50;;;;;;2013512;28;20175;-85
2021/12/08 05:15:57;;;;;;;6.68;4.70;;;15.10;67.20;;;;;;2013237;28;20157;-85
2021/12/08 05:17:01;;;;;;;8.70;4.30;;;15.00;66.40;;;;;;2013486;28;20184;-85
2021/12/08 05:18:07;;;;;;;4.97;3.45;;;15.00;67.00;;;;;;2013074;28;20184;-85
2021/12/08 05:19:12;;;;;;;7.43;4.78;;;15.10;66.90;;;;;;2013364;28;20169;-86
2021/12/08 05:20:20;;;;;;;4.43;3.50;;;15.00;66.60;;;;;;2013221;28;20169;-86
2021/12/08 05:21:31;;;;;;;6.43;4.20;;;15.00;66.80;;;;;;1996599;28;20184;-85
2021/12/08 05:22:34;;;;;;;9.82;4.38;;;15.00;66.80;;;;;;1997778;28;20165;-82
2021/12/08 05:23:48;;;;;;;6.72;3.80;;;14.90;66.70;;;;;;2004601;28;20180;-82
2021/12/08 05:24:51;;;;;;;6.45;4.20;;;14.90;66.70;;;;;;2013082;28;20153;-81
2021/12/08 05:25:51;;;;;;;8.55;4.70;;;15.00;67.00;;;;;;2013272;28;20153;-81
2021/12/08 05:26:59;;;;;;;6.00;3.95;;;14.90;66.30;;;;;;2012835;28;20212;-81
2021/12/08 05:28:02;;;;;;;7.75;3.95;;;14.90;66.90;;;;;;2013077;28;20191;-81
2021/12/08 05:29:10;;;;;;;7.72;4.20;;;14.90;66.90;;;;;;2013141;28;20268;-81
2021/12/08 05:30:14;;;;;;;6.07;4.13;;;14.90;67.10;;;;;;2013062;28;20163;-82
2021/12/08 05:31:17;;;;;;;5.85;3.83;;;14.90;67.30;;;;;;2013310;28;20192;-83
2021/12/08 05:32:16;;;;;;;5.50;4.05;;;14.90;67.50;;;;;;2004619;28;20170;-84
2021/12/08 05:33:16;;;;;;;6.70;4.60;;;14.90;67.40;;;;;;2004720;28;20166;-85
2021/12/08 05:34:16;;;;;;;6.07;3.75;;;15.00;67.60;;;;;;2012985;28;20395;-84
2021/12/08 05:35:17;;;;;;;7.55;4.22;;;15.00;67.60;;;;;;2013030;28;20269;-84
2021/12/08 05:36:17;;;;;;;6.88;4.60;;;15.00;67.60;;;;;;2005001;28;20288;-84
2021/12/08 05:37:18;;;;;;;6.15;4.13;;;15.00;67.50;;;;;;2004447;28;20185;-84
2021/12/08 05:38:18;;;;;;;6.20;4.13;;;15.00;68.00;;;;;;2014685;28;20191;-84
2021/12/08 05:39:20;;;;;;;6.72;4.35;;;15.00;67.80;;;;;;2016645;28;20210;-84
2021/12/08 05:40:37;;;;;;;9.70;4.30;;;15.00;67.80;;;;;;2007392;28;20173;-85
2021/12/08 05:41:39;;;;;;;6.95;4.55;;;15.00;68.10;;;;;;2007556;28;20347;-86
2021/12/08 05:42:38;;;;;;;6.72;4.72;;;15.00;68.20;;;;;;2008067;28;20169;-85
2021/12/08 05:43:37;;;;;;;4.30;3.27;;;15.00;68.40;;;;;;2016378;28;20647;-86
2021/12/08 05:44:38;;;;;;;7.55;4.90;;;15.00;69.20;;;;;;2007180;28;20432;-86
2021/12/08 05:45:38;;;;;;;6.60;4.40;;;15.00;70.00;;;;;;2005965;28;20259;-86
2021/12/08 05:46:42;;;;;;;5.80;4.35;;;15.00;71.50;;;;;;2012938;28;20223;-85
2021/12/08 05:47:44;;;;;;;7.18;4.80;;;15.00;67.80;;;;;;2017958;28;20153;-84
2021/12/08 05:48:47;;;;;;;9.40;5.13;;;15.00;68.70;;;;;;2016718;28;20251;-85
2021/12/08 05:49:46;;;;;;;7.90;4.22;;;15.00;69.00;;;;;;2006905;28;20197;-85
2021/12/08 05:50:57;;;;;;;6.70;4.40;;;15.00;69.10;;;;;;2007414;28;20252;-85
2021/12/08 05:51:56;;;;;;;7.53;4.45;;;15.00;69.40;;;;;;2015861;28;20165;-84
2021/12/08 05:52:55;;;;;;;7.40;5.32;;;15.20;70.50;;;;;;2016387;28;20178;-85
2021/12/08 05:53:58;;;;;;;8.60;5.22;;;15.00;71.60;;;;;;2013815;28;20168;-85
2021/12/08 05:54:57;;;;;;;8.85;4.30;;;15.30;74.40;;;;;;2013549;28;20165;-86
2021/12/08 05:55:57;;;;;;;9.02;4.80;;;15.00;74.70;;;;;;2012955;28;20651;-85
2021/12/08 05:56:56;;;;;;;7.63;4.82;;;15.00;75.50;;;;;;2004371;28;20533;-85
2021/12/08 05:57:57;;;;;;;14.63;4.97;;;15.00;79.50;;;;;;2004388;28;20185;-85
2021/12/08 05:58:57;;;;;;;7.35;4.60;;;15.00;80.30;;;;;;2004233;28;20185;-86